createdAt,value
2022-12-11T00:01:24.081Z,4.47
2022-12-11T00:04:28.038Z,3.70
2022-12-11T00:07:31.878Z,1.45
2022-12-11T00:10:37.937Z,3.72
2022-12-11T00:13:42.641Z,2.50
2022-12-11T00:16:49.148Z,2.85
2022-12-11T00:19:53.068Z,3.28
2022-12-11T00:22:57.985Z,3.60
2022-12-11T00:26:01.994Z,2.77
2022-12-11T00:29:05.632Z,2.50
2022-12-11T00:32:09.717Z,3.38
2022-12-11T00:35:13.422Z,0.73
2022-12-11T00:38:20.342Z,1.88
2022-12-11T00:41:23.660Z,5.15
2022-12-11T00:44:27.829Z,3.85
2022-12-11T00:47:31.415Z,4.63
2022-12-11T00:50:35.849Z,3.22
2022-12-11T00:53:39.720Z,3.60
2022-12-11T00:56:43.935Z,2.70
2022-12-11T00:59:48.100Z,2.67
2022-12-11T01:02:52.613Z,2.83
2022-12-11T01:05:56.565Z,3.20
2022-12-11T01:09:18.441Z,6.80
2022-12-11T01:12:22.109Z,3.50
2022-12-11T01:15:28.723Z,4.50
2022-12-11T01:18:32.316Z,3.70
2022-12-11T01:21:36.397Z,13.70
2022-12-11T01:24:40.059Z,9.77
2022-12-11T01:27:44.236Z,17.33
2022-12-11T01:30:47.859Z,14.85
2022-12-11T01:33:54.573Z,13.30
2022-12-11T01:36:58.352Z,12.23
2022-12-11T01:40:03.212Z,14.27
2022-12-11T01:43:06.802Z,13.20
2022-12-11T01:46:10.717Z,14.15
2022-12-11T01:49:18.234Z,7.07
2022-12-11T01:52:23.473Z,5.10
2022-12-11T01:55:27.165Z,7.97
2022-12-11T01:58:34.943Z,5.57
2022-12-11T02:01:44.112Z,7.75
2022-12-11T02:04:50.630Z,8.10
2022-12-11T02:07:58.946Z,14.60
2022-12-11T02:11:02.861Z,17.73
2022-12-11T02:14:36.153Z,15.43
2022-12-11T02:18:09.461Z,19.17
2022-12-11T02:21:23.814Z,20.58
2022-12-11T02:24:48.656Z,12.10
2022-12-11T02:28:05.050Z,15.07
2022-12-11T02:31:19.239Z,17.73
2022-12-11T02:35:04.061Z,12.77
2022-12-11T02:38:13.148Z,16.88
2022-12-11T02:41:16.267Z,11.90
2022-12-11T02:44:24.074Z,10.18
2022-12-11T02:47:30.452Z,11.25
2022-12-11T02:50:37.205Z,4.65
2022-12-11T02:53:43.486Z,9.25
2022-12-11T02:57:05.335Z,9.07
2022-12-11T03:00:10.279Z,9.68
2022-12-11T03:03:14.297Z,8.97
2022-12-11T03:06:20.917Z,8.27
2022-12-11T03:09:23.924Z,8.98
2022-12-11T03:12:33.503Z,8.53
2022-12-11T03:15:54.316Z,6.90
2022-12-11T03:19:29.010Z,11.52
2022-12-11T03:22:40.361Z,13.43
2022-12-11T03:25:44.059Z,10.30
2022-12-11T03:29:03.178Z,11.18
2022-12-11T03:32:15.199Z,11.40
2022-12-11T03:35:25.984Z,13.10
2022-12-11T03:38:37.628Z,11.23
2022-12-11T03:41:41.777Z,8.30
2022-12-11T03:44:49.246Z,6.23
2022-12-11T03:47:54.615Z,10.10
2022-12-11T03:51:00.047Z,9.13
2022-12-11T03:54:04.549Z,5.63
2022-12-11T03:57:10.895Z,17.85
2022-12-11T04:00:18.275Z,9.38
2022-12-11T04:03:21.513Z,17.67
2022-12-11T04:06:25.151Z,7.67
2022-12-11T04:09:28.778Z,7.22
2022-12-11T04:12:32.394Z,8.10
2022-12-11T04:15:35.605Z,4.80
2022-12-11T04:19:17.087Z,5.90
2022-12-11T04:22:39.274Z,8.30
2022-12-11T04:25:42.137Z,8.43
2022-12-11T04:28:46.795Z,11.65
2022-12-11T04:31:51.287Z,9.25
2022-12-11T04:34:54.210Z,10.02
2022-12-11T04:37:57.947Z,8.13
2022-12-11T04:41:12.524Z,8.95
2022-12-11T04:44:16.272Z,9.68
2022-12-11T04:47:19.199Z,10.73
2022-12-11T04:50:23.383Z,9.93
2022-12-11T04:53:27.518Z,8.45
2022-12-11T04:56:30.451Z,7.30
2022-12-11T04:59:34.338Z,7.57
2022-12-11T05:02:38.751Z,9.00
2022-12-11T05:05:41.742Z,6.60
2022-12-11T05:08:45.977Z,10.53
2022-12-11T05:11:49.573Z,9.07
2022-12-11T05:14:54.297Z,9.63
2022-12-11T05:17:57.911Z,9.33
2022-12-11T05:21:06.789Z,5.85
2022-12-11T05:24:10.525Z,5.63
2022-12-11T05:27:14.238Z,8.10
2022-12-11T05:30:17.160Z,9.60
2022-12-11T05:33:20.816Z,8.57
2022-12-11T05:36:29.813Z,8.25
2022-12-11T05:39:33.572Z,8.17
2022-12-11T05:42:37.233Z,7.13
2022-12-11T05:45:41.121Z,8.77
2022-12-11T05:48:45.648Z,11.50
2022-12-11T05:51:48.887Z,8.63
2022-12-11T05:54:51.804Z,7.18
2022-12-11T05:57:55.062Z,7.50
2022-12-11T06:00:58.935Z,7.50
2022-12-11T06:04:03.122Z,10.27
2022-12-11T06:07:05.980Z,8.27
2022-12-11T06:10:10.435Z,9.60
2022-12-11T06:13:14.635Z,8.57
2022-12-11T06:16:17.706Z,6.15
2022-12-11T06:19:21.462Z,7.57
2022-12-11T06:22:24.345Z,10.95
2022-12-11T06:25:28.095Z,12.82
2022-12-11T06:28:31.027Z,12.05
2022-12-11T06:31:33.937Z,22.75
2022-12-11T06:34:37.757Z,14.40
2022-12-11T06:37:41.876Z,12.40
2022-12-11T06:40:45.683Z,15.50
2022-12-11T06:43:48.687Z,14.45
2022-12-11T06:46:52.035Z,16.77
2022-12-11T06:49:56.066Z,16.23
2022-12-11T06:53:00.353Z,16.75
2022-12-11T06:56:11.242Z,17.92
2022-12-11T06:59:15.441Z,11.75
2022-12-11T07:02:20.751Z,13.55
2022-12-11T07:05:24.283Z,11.95
2022-12-11T07:08:29.727Z,13.50
2022-12-11T07:11:33.877Z,11.20
2022-12-11T07:14:37.768Z,13.20
2022-12-11T07:17:41.422Z,10.95
2022-12-11T07:20:44.246Z,11.90
2022-12-11T07:23:48.764Z,12.20
2022-12-11T07:26:51.703Z,12.30
2022-12-11T07:29:56.655Z,13.90
2022-12-11T07:33:00.418Z,13.85
2022-12-11T07:36:06.120Z,13.10
2022-12-11T07:39:12.663Z,30.75
2022-12-11T07:42:16.007Z,16.77
2022-12-11T07:45:18.866Z,16.73
2022-12-11T07:48:22.436Z,17.95
2022-12-11T07:51:29.854Z,15.47
2022-12-11T07:54:33.199Z,12.05
2022-12-11T07:57:36.957Z,16.48
2022-12-11T08:00:41.402Z,15.07
2022-12-11T08:03:45.216Z,8.85
2022-12-11T08:06:48.887Z,14.20
2022-12-11T08:09:52.561Z,9.73
2022-12-11T08:12:55.822Z,9.67
2022-12-11T08:15:59.158Z,15.80
2022-12-11T08:19:02.140Z,20.90
2022-12-11T08:22:05.256Z,23.20
2022-12-11T08:25:09.531Z,29.48
2022-12-11T08:28:13.467Z,31.58
2022-12-11T08:31:18.748Z,25.50
2022-12-11T08:34:21.700Z,56.13
2022-12-11T08:37:25.327Z,77.72
2022-12-11T08:40:28.822Z,81.43
2022-12-11T08:43:34.833Z,104.93
2022-12-11T08:46:38.622Z,79.45
2022-12-11T08:49:42.666Z,51.00
2022-12-11T08:52:46.489Z,44.03
2022-12-11T08:55:50.599Z,77.43
2022-12-11T08:58:54.464Z,59.85
2022-12-11T09:01:58.682Z,42.42
2022-12-11T09:05:02.582Z,54.28
2022-12-11T09:08:06.389Z,59.10
2022-12-11T09:11:13.420Z,40.97
2022-12-11T09:14:17.746Z,29.60
2022-12-11T09:17:21.248Z,39.17
2022-12-11T09:20:25.187Z,34.22
2022-12-11T09:23:28.683Z,54.27
2022-12-11T09:26:32.870Z,99.15
2022-12-11T09:29:36.264Z,53.45
2022-12-11T09:32:40.827Z,65.97
2022-12-11T09:35:44.343Z,56.17
2022-12-11T09:38:49.029Z,50.13
2022-12-11T09:42:12.704Z,53.85
2022-12-11T09:45:17.359Z,57.20
2022-12-11T09:48:24.285Z,67.03
2022-12-11T09:51:31.902Z,82.28
2022-12-11T09:54:36.024Z,71.60
2022-12-11T09:58:06.167Z,85.30
2022-12-11T10:01:36.327Z,115.05
2022-12-11T10:04:42.812Z,119.60
2022-12-11T10:08:18.110Z,116.43
2022-12-11T10:11:56.435Z,107.05
2022-12-11T10:15:29.273Z,112.75
2022-12-11T10:18:33.341Z,112.47
2022-12-11T10:21:42.476Z,130.75
2022-12-11T10:25:12.580Z,142.90
2022-12-11T10:28:18.590Z,106.10
2022-12-11T10:31:48.769Z,72.72
2022-12-11T10:35:06.048Z,49.63
2022-12-11T10:38:27.982Z,34.72
2022-12-11T10:41:37.502Z,44.43
2022-12-11T10:44:40.584Z,43.15
2022-12-11T10:47:43.505Z,40.80
2022-12-11T10:50:57.860Z,57.83
2022-12-11T10:54:38.690Z,65.95
2022-12-11T10:57:42.012Z,79.75
2022-12-11T11:00:46.803Z,72.93
2022-12-11T11:04:08.006Z,64.43
2022-12-11T11:07:17.402Z,82.97
2022-12-11T11:10:21.399Z,74.45
2022-12-11T11:13:27.861Z,91.83
2022-12-11T11:16:32.568Z,91.90
2022-12-11T11:19:37.567Z,85.13
2022-12-11T11:22:48.463Z,101.57
2022-12-11T11:25:57.501Z,92.75
2022-12-11T11:29:00.855Z,89.40
2022-12-11T11:32:25.770Z,65.15
2022-12-11T11:35:32.089Z,65.00
2022-12-11T11:39:08.250Z,59.00
2022-12-11T11:42:31.183Z,40.60
2022-12-11T11:45:54.639Z,47.03
2022-12-11T11:49:07.286Z,45.85
2022-12-11T11:52:20.246Z,49.67
2022-12-11T11:55:29.653Z,102.27
2022-12-11T11:58:52.930Z,99.57
2022-12-11T12:01:58.792Z,101.35
2022-12-11T12:05:02.686Z,129.55
2022-12-11T12:08:17.753Z,142.25
2022-12-11T12:11:36.371Z,103.30
2022-12-11T12:15:20.993Z,85.93
2022-12-11T12:18:39.397Z,50.47
2022-12-11T12:21:48.095Z,51.30
2022-12-11T12:25:07.815Z,28.50
2022-12-11T12:28:23.925Z,29.23
2022-12-11T12:31:46.082Z,40.53
2022-12-11T12:34:57.576Z,177.98
2022-12-11T12:38:11.150Z,188.77
2022-12-11T12:41:29.315Z,188.00
2022-12-11T12:45:08.086Z,197.05
2022-12-11T12:48:12.252Z,209.60
2022-12-11T12:51:18.126Z,179.03
2022-12-11T12:54:23.088Z,132.40
2022-12-11T12:57:26.783Z,96.65
2022-12-11T13:00:33.818Z,179.17
2022-12-11T13:03:59.584Z,158.18
2022-12-11T13:07:30.756Z,97.45
2022-12-11T13:10:40.949Z,100.35
2022-12-11T13:13:54.722Z,127.65
2022-12-11T13:17:22.412Z,166.40
2022-12-11T13:20:29.280Z,144.35
2022-12-11T13:23:35.433Z,123.03
2022-12-11T13:26:40.086Z,137.02
2022-12-11T13:29:43.856Z,118.53
2022-12-11T13:33:03.988Z,92.10
2022-12-11T13:36:16.683Z,92.18
2022-12-11T13:39:29.097Z,82.55
2022-12-11T13:42:36.431Z,67.72
2022-12-11T13:45:56.031Z,56.67
2022-12-11T13:49:03.220Z,47.63
2022-12-11T13:52:08.223Z,46.72
2022-12-11T13:55:24.633Z,39.07
2022-12-11T13:58:29.660Z,36.83
2022-12-11T14:01:36.020Z,46.13
2022-12-11T14:04:40.228Z,34.90
2022-12-11T14:07:55.769Z,33.78
2022-12-11T14:10:59.838Z,40.67
2022-12-11T14:14:06.012Z,41.85
2022-12-11T14:17:16.328Z,32.47
2022-12-11T14:20:24.164Z,37.33
2022-12-11T14:23:30.425Z,34.38
2022-12-11T14:26:40.326Z,30.83
2022-12-11T14:29:43.928Z,43.78
2022-12-11T14:32:48.518Z,42.53
2022-12-11T14:35:54.327Z,35.10
2022-12-11T14:39:14.166Z,30.80
2022-12-11T14:42:25.348Z,36.72
2022-12-11T14:45:35.547Z,26.67
2022-12-11T14:48:47.896Z,17.80
2022-12-11T14:51:56.040Z,27.88
2022-12-11T14:55:21.044Z,35.28
2022-12-11T14:58:29.842Z,36.43
2022-12-11T15:01:35.698Z,26.55
2022-12-11T15:04:39.830Z,22.33
2022-12-11T15:07:54.249Z,21.03
2022-12-11T15:11:09.232Z,18.55
2022-12-11T15:14:14.510Z,20.08
2022-12-11T15:17:20.100Z,10.07
2022-12-11T15:20:30.022Z,10.52
2022-12-11T15:23:41.235Z,10.02
2022-12-11T15:26:49.389Z,8.85
2022-12-11T15:29:53.385Z,7.07
2022-12-11T15:33:31.038Z,7.88
2022-12-11T15:36:38.247Z,5.63
2022-12-11T15:39:41.972Z,7.90
2022-12-11T15:42:46.153Z,7.32
2022-12-11T15:45:49.464Z,8.50
2022-12-11T15:48:53.417Z,7.80
2022-12-11T15:51:57.347Z,7.22
2022-12-11T15:55:00.963Z,7.93
2022-12-11T15:58:08.222Z,7.32
2022-12-11T16:01:12.440Z,4.30
2022-12-11T16:04:16.152Z,6.25
2022-12-11T16:07:23.113Z,9.70
2022-12-11T16:10:27.455Z,6.07
2022-12-11T16:13:31.676Z,6.00
2022-12-11T16:16:35.066Z,7.18
2022-12-11T16:19:39.480Z,5.88
2022-12-11T16:22:43.175Z,1.85
2022-12-11T16:25:48.132Z,2.83
2022-12-11T16:28:51.811Z,2.47
2022-12-11T16:31:56.197Z,3.23
2022-12-11T16:35:02.867Z,3.33
2022-12-11T16:38:06.433Z,6.03
2022-12-11T16:41:10.083Z,2.63
2022-12-11T16:44:13.976Z,3.85
2022-12-11T16:47:17.568Z,3.35
2022-12-11T16:50:22.374Z,4.05
2022-12-11T16:53:26.332Z,2.80
2022-12-11T16:56:30.316Z,6.30
2022-12-11T16:59:37.233Z,2.13
2022-12-11T17:02:41.880Z,5.10
2022-12-11T17:05:45.184Z,8.23
2022-12-11T17:08:49.613Z,8.00
2022-12-11T17:11:53.725Z,2.67
2022-12-11T17:14:58.044Z,2.97
2022-12-11T17:18:01.211Z,5.00
2022-12-11T17:21:13.608Z,2.97
2022-12-11T17:24:18.582Z,3.72
2022-12-11T17:27:22.456Z,3.63
2022-12-11T17:30:26.217Z,2.20
2022-12-11T17:33:30.267Z,3.63
2022-12-11T17:36:34.690Z,3.05
2022-12-11T17:39:39.455Z,2.72
2022-12-11T17:42:45.469Z,2.97
2022-12-11T17:45:53.312Z,3.10
2022-12-11T17:48:59.953Z,3.53
2022-12-11T17:52:04.019Z,2.50
2022-12-11T17:55:07.763Z,1.65
2022-12-11T17:58:12.733Z,2.58
2022-12-11T18:01:16.716Z,3.25
2022-12-11T18:04:20.779Z,3.83
2022-12-11T18:07:24.103Z,4.60
2022-12-11T18:10:28.491Z,3.42
2022-12-11T18:13:31.665Z,4.10
2022-12-11T18:16:38.952Z,3.00
2022-12-11T18:19:46.067Z,5.05
2022-12-11T18:22:50.355Z,2.40
2022-12-11T18:25:54.052Z,2.92
2022-12-11T18:28:57.682Z,2.83
2022-12-11T18:32:01.422Z,3.60
2022-12-11T18:35:06.026Z,4.03
2022-12-11T18:38:09.776Z,5.72
2022-12-11T18:41:14.932Z,4.03
2022-12-11T18:44:23.058Z,3.50
2022-12-11T18:47:27.579Z,2.25
2022-12-11T18:50:30.898Z,2.78
2022-12-11T18:53:35.744Z,2.83
2022-12-11T18:56:39.368Z,4.30
2022-12-11T18:59:43.646Z,2.08
2022-12-11T19:02:47.196Z,2.95
2022-12-11T19:05:50.686Z,2.40
2022-12-11T19:08:54.330Z,1.15
2022-12-11T19:11:58.305Z,3.00
2022-12-11T19:15:01.915Z,2.20
2022-12-11T19:18:06.008Z,2.90
2022-12-11T19:21:13.578Z,3.65
2022-12-11T19:24:21.294Z,4.07
2022-12-11T19:27:24.689Z,3.08
2022-12-11T19:30:28.822Z,1.83
2022-12-11T19:33:32.368Z,2.70
2022-12-11T19:36:38.059Z,3.20
2022-12-11T19:39:41.664Z,4.20
2022-12-11T19:42:45.341Z,2.38
2022-12-11T19:45:49.924Z,2.93
2022-12-11T19:48:55.405Z,3.08
2022-12-11T19:51:58.804Z,3.35
2022-12-11T19:55:04.919Z,2.40
2022-12-11T19:58:08.544Z,2.15
2022-12-11T20:01:20.786Z,3.50
2022-12-11T20:04:24.628Z,1.80
2022-12-11T20:07:30.859Z,2.57
2022-12-11T20:10:36.342Z,2.92
2022-12-11T20:13:41.941Z,3.95
2022-12-11T20:17:10.132Z,1.10
2022-12-11T20:20:10.841Z,2.20
2022-12-11T20:23:14.596Z,2.92
2022-12-11T20:26:22.445Z,2.10
2022-12-11T20:29:26.039Z,3.15
2022-12-11T20:32:29.998Z,2.65
2022-12-11T20:35:33.603Z,2.40
2022-12-11T20:38:38.430Z,2.47
2022-12-11T20:41:41.697Z,1.45
2022-12-11T20:44:49.238Z,1.98
2022-12-11T20:47:52.897Z,1.70
2022-12-11T20:51:01.570Z,1.55
2022-12-11T20:54:05.401Z,4.38
2022-12-11T20:57:09.348Z,3.38
2022-12-11T21:00:13.871Z,2.33
2022-12-11T21:03:18.086Z,2.08
2022-12-11T21:06:25.912Z,1.95
2022-12-11T21:09:30.295Z,2.47
2022-12-11T21:12:34.413Z,3.78
2022-12-11T21:15:40.280Z,2.80
2022-12-11T21:18:44.844Z,2.17
2022-12-11T21:21:49.574Z,2.30
2022-12-11T21:24:52.994Z,3.20
2022-12-11T21:27:56.978Z,1.98
2022-12-11T21:31:02.902Z,1.95
2022-12-11T21:34:06.695Z,2.20
2022-12-11T21:37:10.275Z,2.95
2022-12-11T21:40:14.596Z,1.37
2022-12-11T21:43:18.391Z,3.47
2022-12-11T21:46:26.267Z,1.02
2022-12-11T21:49:29.552Z,2.47
2022-12-11T21:52:33.673Z,2.40
2022-12-11T21:55:41.860Z,1.83
2022-12-11T21:58:46.477Z,2.90
2022-12-11T22:01:50.282Z,3.50
2022-12-11T22:04:55.169Z,0.88
2022-12-11T22:07:58.793Z,2.55
2022-12-11T22:11:02.613Z,2.17
2022-12-11T22:14:08.196Z,2.85
2022-12-11T22:17:11.615Z,3.75
2022-12-11T22:20:15.206Z,2.07
2022-12-11T22:23:18.833Z,2.40
2022-12-11T22:26:25.874Z,3.22
2022-12-11T22:29:29.830Z,5.28
2022-12-11T22:32:33.934Z,3.95
2022-12-11T22:35:37.855Z,4.07
2022-12-11T22:38:41.477Z,4.60
2022-12-11T22:41:45.384Z,2.90
2022-12-11T22:44:48.953Z,4.28
2022-12-11T22:47:53.141Z,2.80
2022-12-11T22:50:56.715Z,2.40
2022-12-11T22:54:00.722Z,3.03
2022-12-11T22:57:04.347Z,3.00
2022-12-11T23:00:11.317Z,2.72
2022-12-11T23:03:15.166Z,4.15
2022-12-11T23:06:22.879Z,4.43
2022-12-11T23:09:26.293Z,2.30
2022-12-11T23:12:30.275Z,2.90
2022-12-11T23:15:33.976Z,3.95
2022-12-11T23:18:38.197Z,1.83
2022-12-11T23:21:42.029Z,2.17
2022-12-11T23:24:47.709Z,3.72
2022-12-11T23:27:51.338Z,3.78
2022-12-11T23:30:55.915Z,2.72
2022-12-11T23:34:00.116Z,2.90
2022-12-11T23:37:04.607Z,2.75
2022-12-11T23:40:09.790Z,2.75
2022-12-11T23:43:13.447Z,1.87
2022-12-11T23:46:20.923Z,2.65
2022-12-11T23:49:24.844Z,2.30
2022-12-11T23:52:28.411Z,3.47
2022-12-11T23:55:32.942Z,4.65
2022-12-11T23:58:39.350Z,4.85
